This is the latest recevied weather packets stored in our database for station/object AB0TJ. If no packets are shown the sender has not sent any weather packets the latest 10 day(s).
| Time | Temp. | Humidity | Pressure | Rain* | Wind** | Luminosity | Snow |
|---|---|---|---|---|---|---|---|
| 1778005304 | 21.11° C | 24% | 1006.4 hPa | 0 mm | - | 819 W/m² | - |
| 1778004759 | 20.56° C | 26% | 1006.6 hPa | 0 mm | - | 799 W/m² | - |
| 1778004224 | 20.56° C | 26% | 1006.8 hPa | 0 mm | - | 735 W/m² | - |
| 1778003719 | 20° C | 27% | 1007 hPa | 0 mm | - | 792 W/m² | - |
| 1778003154 | 20° C | 28% | 1007.1 hPa | 0 mm | - | 783 W/m² | - |
| 1778002574 | 20° C | 30% | 1006.9 hPa | 0 mm | - | 736 W/m² | - |
| 1778002059 | 19.44° C | 31% | 1007.2 hPa | 0 mm | - | 718 W/m² | - |
| 1778001464 | 19.44° C | 31% | 1007.2 hPa | 0 mm | - | 699 W/m² | - |
| 1778000959 | 19.44° C | 30% | 1007.3 hPa | 0 mm | - | 683 W/m² | - |
| 1778000454 | 20° C | 30% | 1007.3 hPa | 0 mm | - | 668 W/m² | - |
| 1777999881 | 20° C | 31% | 1007.5 hPa | 0 mm | - | 645 W/m² | - |
| 1777999334 | 20° C | 31% | 1007.5 hPa | 0 mm | - | 627 W/m² | - |
| 1777998824 | 20.56° C | 30% | 1007.8 hPa | 0 mm | - | 604 W/m² | - |
| 1777998279 | 21.11° C | 28% | 1007.7 hPa | 0 mm | - | 583 W/m² | - |
| 1777997714 | 21.11° C | 28% | 1007.8 hPa | 0 mm | - | 558 W/m² | - |
| 1777997233 | 21.67° C | 27% | 1008.1 hPa | 0 mm | - | 537 W/m² | - |
| 1777996633 | 20.56° C | 31% | 1007.1 hPa | 0 mm | - | 517 W/m² | - |
| 1777996149 | 19.44° C | 35% | 1007.2 hPa | 0 mm | - | 488 W/m² | - |
| 1777995664 | 18.33° C | 36% | 1007.2 hPa | 0 mm | - | 464 W/m² | - |
| 1777995084 | 17.22° C | 40% | 1007.3 hPa | 0 mm | - | 431 W/m² | - |
| 1777994559 | 16.67° C | 43% | 1008.1 hPa | 0 mm | - | 406 W/m² | - |
| 1777994049 | 16.11° C | 46% | 1007.6 hPa | 0 mm | - | 382 W/m² | - |
| 1777993513 | 15° C | 51% | 1007.7 hPa | 0 mm | - | 352 W/m² | - |
| 1777992929 | 14.44° C | 55% | 1007.8 hPa | 0 mm | - | 224 W/m² | - |
| 1777992406 | 13.89° C | 58% | 1008 hPa | 0 mm | - | 289 W/m² | - |
* Rain latest hour (hover to see other rain measurements)
** Current wind speed in m/s (hover to see current wind gust speed)